Time;durP1;ratioP1;P1;durP2;ratioP2;P2;SDS_P1;SDS_P2;PMS_P1;PMS_P2;Temp;Humidity;BMP_temperature;BMP_pressure;BME280_temperature;BME280_humidity;BME280_pressure;Samples;Min_cycle;Max_cycle;Signal;HPM_P1;HPM_P2
2023/01/08 00:04:05;;;;;;;7.53;3.13;;;;;;;9.51;65.44;99390.44;10437009;28;20046;-78
2023/01/08 00:09:09;;;;;;;4.30;2.92;;;;;;;9.40;65.40;99415.53;10430434;28;20430;-77
2023/01/08 00:14:12;;;;;;;4.30;2.50;;;;;;;9.37;65.50;99413.13;10427593;28;20543;-77
2023/01/08 00:19:15;;;;;;;3.45;2.65;;;;;;;9.60;64.79;99403.00;10439548;28;20052;-77
2023/01/08 00:24:19;;;;;;;3.08;2.30;;;;;;;9.72;64.87;99409.06;10435414;28;20061;-77
2023/01/08 00:29:22;;;;;;;3.15;2.50;;;;;;;9.75;64.65;99406.09;10429460;28;20413;-77
2023/01/08 00:39:29;;;;;;;2.90;2.60;;;;;;;9.72;64.92;99401.84;10426482;28;20072;-77
2023/01/08 00:44:32;;;;;;;2.97;2.63;;;;;;;9.69;64.83;99391.41;10411853;28;20474;-77
2023/01/08 00:49:34;;;;;;;;;;;;;;;9.47;65.39;99394.41;10431713;28;20121;-77
2023/01/08 00:54:39;;;;;;;4.30;2.30;;;;;;;9.75;64.99;99389.16;10432707;28;19920;-77
2023/01/08 00:59:41;;;;;;;4.80;2.92;;;;;;;9.80;64.89;99373.47;10438404;28;20128;-77
2023/01/08 01:04:44;;;;;;;3.17;2.45;;;;;;;9.63;65.22;99375.06;10434651;28;20601;-77
2023/01/08 01:09:48;;;;;;;2.63;2.42;;;;;;;9.35;66.25;99360.66;10438154;28;20068;-77
2023/01/08 01:14:51;;;;;;;4.10;2.53;;;;;;;9.66;65.60;99362.22;10442297;28;20046;-77
2023/01/08 01:19:54;;;;;;;2.83;2.10;;;;;;;9.64;65.24;99353.44;10441846;28;20111;-77
2023/01/08 01:24:59;;;;;;;4.55;2.65;;;;;;;9.61;65.53;99351.06;10440945;28;20053;-77
2023/01/08 01:30:02;;;;;;;2.83;2.05;;;;;;;9.31;66.07;99357.44;10446275;28;20044;-77
2023/01/08 01:35:05;;;;;;;3.42;2.20;;;;;;;9.66;65.81;99358.69;10444935;28;20037;-77
2023/01/08 01:40:12;;;;;;;3.15;2.17;;;;;;;9.23;67.56;99358.13;10436197;28;20556;-77
2023/01/08 01:45:19;;;;;;;3.05;2.45;;;;;;;9.25;67.86;99348.13;10438452;28;20044;-77
2023/01/08 01:50:27;;;;;;;3.85;2.42;;;;;;;9.51;67.24;99347.53;10439281;28;20564;-77
2023/01/08 01:55:35;;;;;;;2.55;2.20;;;;;;;9.81;66.17;99346.50;10437137;28;20042;-77
2023/01/08 02:00:38;;;;;;;2.72;2.20;;;;;;;9.75;66.30;99349.75;10441102;28;20072;-78
2023/01/08 02:05:46;;;;;;;5.55;2.53;;;;;;;9.47;67.36;99343.47;10434229;28;20053;-77
2023/01/08 02:10:56;;;;;;;2.58;2.08;;;;;;;9.46;67.22;99356.03;10437288;28;20041;-77
2023/01/08 02:16:06;;;;;;;2.78;2.20;;;;;;;9.55;67.13;99342.75;10433583;28;20068;-77
2023/01/08 02:21:12;;;;;;;2.35;2.00;;;;;;;9.31;67.71;99351.22;10437423;28;20506;-77
2023/01/08 02:26:21;;;;;;;3.00;2.05;;;;;;;9.54;67.28;99352.59;10433308;28;20123;-77
2023/01/08 02:31:26;;;;;;;2.10;1.85;;;;;;;9.50;67.41;99344.03;10423026;28;20041;-77
2023/01/08 02:36:36;;;;;;;2.03;1.85;;;;;;;9.51;67.34;99345.69;10427527;28;20121;-77
2023/01/08 02:41:52;;;;;;;3.83;1.88;;;;;;;9.43;67.99;99329.47;10426658;28;20065;-77
2023/01/08 02:46:57;;;;;;;2.25;1.80;;;;;;;9.45;67.82;99332.03;10430672;28;20127;-77
2023/01/08 02:52:05;;;;;;;2.17;2.00;;;;;;;9.54;67.80;99328.47;10443181;28;20080;-77
2023/01/08 02:57:13;;;;;;;1.80;1.70;;;;;;;9.44;67.78;99322.31;10443772;28;20098;-77
2023/01/08 03:02:16;;;;;;;2.63;1.92;;;;;;;9.43;68.21;99320.59;10433790;28;20045;-77
2023/01/08 03:07:20;;;;;;;2.63;1.88;;;;;;;9.71;67.29;99318.88;10442438;28;20449;-77
2023/01/08 03:12:29;;;;;;;2.70;1.60;;;;;;;9.66;67.53;99307.75;10433070;28;20447;-77
2023/01/08 03:17:36;;;;;;;2.05;1.90;;;;;;;9.54;67.89;99306.19;10411171;28;20065;-77
2023/01/08 03:22:41;;;;;;;1.80;1.70;;;;;;;9.83;66.98;99298.09;10437379;28;20081;-78
2023/01/08 03:27:50;;;;;;;2.40;2.10;;;;;;;9.83;66.90;99287.38;10426503;28;20128;-77
2023/01/08 03:32:55;;;;;;;1.73;1.45;;;;;;;9.78;67.16;99286.94;10436852;28;20525;-77
2023/01/08 03:38:06;;;;;;;2.70;1.75;;;;;;;9.78;67.01;99295.84;10426721;28;20562;-77
2023/01/08 03:43:11;;;;;;;2.88;1.80;;;;;;;9.67;67.36;99286.13;10442222;28;20099;-77
2023/01/08 03:48:14;;;;;;;4.57;1.70;;;;;;;9.72;67.36;99274.97;10441640;28;20111;-77
2023/01/08 03:53:17;;;;;;;2.42;1.90;;;;;;;9.64;67.75;99266.81;10426342;28;20117;-77
2023/01/08 03:58:21;;;;;;;1.60;1.50;;;;;;;9.71;67.63;99266.09;10430946;28;20486;-77
2023/01/08 04:03:24;;;;;;;2.13;1.63;;;;;;;9.68;68.09;99254.78;10432151;28;20135;-77
2023/01/08 04:08:27;;;;;;;3.08;1.65;;;;;;;9.57;68.72;99242.44;10428666;28;20459;-77
2023/01/08 04:13:31;;;;;;;3.15;1.95;;;;;;;9.57;69.37;99245.13;10429940;28;20066;-78
2023/01/08 04:18:34;;;;;;;2.60;1.52;;;;;;;9.36;70.33;99247.13;10443564;28;20045;-78
2023/01/08 04:23:37;;;;;;;2.00;1.42;;;;;;;9.35;70.58;99238.25;10431452;28;20064;-78
2023/01/08 04:28:41;;;;;;;3.33;1.80;;;;;;;9.44;70.78;99236.53;10431587;28;20066;-78
2023/01/08 04:33:44;;;;;;;2.38;2.08;;;;;;;9.42;70.84;99235.84;10440332;28;20098;-78
2023/01/08 04:38:47;;;;;;;3.25;2.10;;;;;;;9.36;71.08;99220.34;10486749;22;20476;-77
2023/01/08 04:43:51;;;;;;;2.42;1.90;;;;;;;9.33;70.99;99224.16;10470008;28;20048;-76
2023/01/08 04:48:54;;;;;;;3.40;2.47;;;;;;;9.25;71.42;99232.91;10433608;28;20469;-76
2023/01/08 04:53:57;;;;;;;3.65;2.47;;;;;;;9.26;71.36;99215.81;10430923;28;20096;-77
2023/01/08 04:59:02;;;;;;;2.22;1.90;;;;;;;9.30;71.29;99216.41;10430931;28;20496;-76
2023/01/08 05:04:05;;;;;;;1.90;1.55;;;;;;;9.28;71.27;99205.81;10437301;28;20088;-75
2023/01/08 05:09:08;;;;;;;2.28;1.58;;;;;;;9.39;70.96;99210.16;10430041;28;20512;-76
2023/01/08 05:14:12;;;;;;;2.05;1.85;;;;;;;9.36;71.04;99197.06;10431753;28;20046;-76
2023/01/08 05:19:15;;;;;;;1.52;1.42;;;;;;;9.25;71.38;99189.19;10430411;28;20116;-76
2023/01/08 05:24:18;;;;;;;3.95;2.05;;;;;;;9.33;71.36;99194.66;10429777;28;20076;-76
2023/01/08 05:29:22;;;;;;;;;;;;;;;9.32;71.55;99190.28;10430237;28;20072;-76
2023/01/08 05:34:24;;;;;;;2.13;1.52;;;;;;;9.21;72.41;99187.78;10429628;28;20020;-76
2023/01/08 05:39:27;;;;;;;1.98;1.60;;;;;;;9.19;72.75;99181.75;10435513;28;20061;-76
2023/01/08 05:44:31;;;;;;;6.10;1.83;;;;;;;9.17;73.04;99184.56;10436510;28;20452;-76
2023/01/08 05:49:34;;;;;;;4.00;1.90;;;;;;;9.13;73.22;99190.31;10436569;28;20124;-75
2023/01/08 05:54:37;;;;;;;2.80;2.10;;;;;;;8.98;73.54;99180.06;10440522;28;20103;-76
2023/01/08 05:59:41;;;;;;;2.38;1.65;;;;;;;9.13;74.17;99187.66;10432257;28;20099;-76
2023/01/08 06:04:44;;;;;;;2.25;1.75;;;;;;;9.01;75.31;99185.13;10435090;28;20116;-76
2023/01/08 06:09:47;;;;;;;1.30;1.20;;;;;;;8.86;76.22;99177.69;10436995;28;20049;-75
2023/01/08 06:14:51;;;;;;;1.50;1.40;;;;;;;8.82;76.48;99183.31;10415655;28;20095;-75
2023/01/08 06:19:54;;;;;;;1.65;1.13;;;;;;;8.78;76.92;99184.63;10415308;28;20072;-75
2023/01/08 06:24:56;;;;;;;1.85;1.50;;;;;;;8.57;78.15;99192.78;10416118;28;20096;-75
2023/01/08 06:30:01;;;;;;;1.33;0.85;;;;;;;8.50;78.53;99190.78;10431905;28;20076;-75
2023/01/08 06:35:04;;;;;;;1.90;1.30;;;;;;;8.80;77.83;99189.81;10434477;28;20418;-75
2023/01/08 06:40:08;;;;;;;1.83;1.35;;;;;;;8.81;78.32;99181.66;10437523;28;20042;-75
2023/01/08 06:45:13;;;;;;;2.28;1.52;;;;;;;8.72;79.17;99173.59;10439984;28;20072;-75
2023/01/08 06:50:16;;;;;;;2.40;1.50;;;;;;;8.51;80.26;99173.78;10432812;28;20048;-75
2023/01/08 06:55:19;;;;;;;2.22;2.03;;;;;;;8.50;80.63;99180.09;10436102;28;20490;-76
2023/01/08 07:00:24;;;;;;;3.42;1.73;;;;;;;8.34;80.83;99168.09;10435805;28;20041;-75
2023/01/08 07:05:27;;;;;;;3.42;2.20;;;;;;;8.38;80.92;99172.16;10433641;28;20051;-75
2023/01/08 07:10:31;;;;;;;4.15;2.13;;;;;;;8.42;80.73;99170.09;10433744;28;20045;-75
2023/01/08 07:15:35;;;;;;;2.15;1.90;;;;;;;8.48;80.51;99176.72;10434575;28;20049;-75
2023/01/08 07:20:38;;;;;;;3.58;1.92;;;;;;;8.49;80.22;99173.91;10433895;28;20394;-75
2023/01/08 07:25:41;;;;;;;1.67;1.20;;;;;;;8.49;80.03;99173.91;10429166;28;20152;-74
2023/01/08 07:30:45;;;;;;;3.13;1.48;;;;;;;8.56;79.71;99177.72;10437751;28;20724;-75
2023/01/08 07:35:52;;;;;;;3.20;1.45;;;;;;;8.52;79.49;99183.47;10433256;28;20095;-74
2023/01/08 07:40:56;;;;;;;2.45;1.40;;;;;;;8.63;79.44;99179.81;10429211;28;20494;-75
2023/01/08 07:46:03;;;;;;;1.30;1.20;;;;;;;8.58;79.18;99191.81;10433894;28;20041;-75
2023/01/08 07:51:08;;;;;;;2.03;1.20;;;;;;;8.52;78.71;99187.00;10435605;28;20417;-75
2023/01/08 07:56:11;;;;;;;1.05;0.95;;;;;;;8.63;78.11;99186.00;10433717;28;20072;-74
2023/01/08 08:01:15;;;;;;;1.75;1.27;;;;;;;8.73;77.93;99184.19;10426284;28;20068;-75
2023/01/08 08:06:18;;;;;;;1.95;1.10;;;;;;;8.82;77.71;99182.50;10433617;28;20106;-75
2023/01/08 08:11:21;;;;;;;3.45;1.13;;;;;;;8.78;77.71;99183.78;10433275;28;20041;-75
2023/01/08 08:16:25;;;;;;;1.48;1.35;;;;;;;8.88;77.25;99184.59;10432631;28;20509;-75
2023/01/08 08:21:29;;;;;;;1.77;1.10;;;;;;;8.68;77.07;99181.09;10436984;28;20968;-74
2023/01/08 08:26:32;;;;;;;1.35;1.25;;;;;;;8.74;76.72;99160.94;10432403;28;20079;-75
2023/01/08 08:31:36;;;;;;;2.33;1.30;;;;;;;8.67;76.62;99167.88;10411709;28;20045;-75
2023/01/08 08:36:39;;;;;;;2.75;1.10;;;;;;;8.71;76.21;99164.75;10411614;28;20121;-76
2023/01/08 08:41:42;;;;;;;2.08;1.05;;;;;;;8.78;75.81;99157.00;10417438;28;20103;-75
2023/01/08 08:46:46;;;;;;;0.75;0.75;;;;;;;8.69;75.11;99152.47;10423624;28;20045;-76
2023/01/08 08:51:49;;;;;;;1.20;0.95;;;;;;;8.91;73.81;99152.16;10436376;28;20056;-75
2023/01/08 08:56:52;;;;;;;3.50;2.40;;;;;;;8.90;73.28;99157.69;10436519;28;20082;-76
2023/01/08 09:01:56;;;;;;;1.90;1.08;;;;;;;8.86;73.17;99167.84;10394232;28;20057;-77
2023/01/08 09:07:00;;;;;;;0.47;0.40;;;;;;;8.99;72.67;99156.81;10389353;28;20053;-77
2023/01/08 09:12:03;;;;;;;0.75;0.75;;;;;;;8.99;73.49;99159.47;10400794;28;20045;-77
2023/01/08 09:17:07;;;;;;;0.40;0.40;;;;;;;8.63;74.85;99172.63;10398942;28;20057;-76
2023/01/08 09:22:10;;;;;;;0.63;0.50;;;;;;;8.54;75.67;99165.47;10406992;28;20055;-75
2023/01/08 09:27:13;;;;;;;0.57;0.57;;;;;;;8.21;77.67;99174.69;10399138;28;20050;-75
2023/01/08 09:32:17;;;;;;;0.82;0.40;;;;;;;8.34;76.88;99176.13;10402193;28;20590;-75
2023/01/08 09:37:22;;;;;;;0.52;0.52;;;;;;;8.24;76.75;99179.78;10402411;28;20041;-75
2023/01/08 09:42:27;;;;;;;0.80;0.80;;;;;;;8.32;74.93;99155.84;10411688;28;20045;-74
2023/01/08 09:47:38;;;;;;;2.35;0.68;;;;;;;8.82;73.51;99156.56;10400447;28;20091;-75
2023/01/08 09:52:41;;;;;;;2.08;0.88;;;;;;;8.78;72.48;99167.72;10398708;28;20045;-76
2023/01/08 09:57:47;;;;;;;0.70;0.47;;;;;;;8.82;71.70;99167.25;10401973;28;20096;-75
2023/01/08 10:02:53;;;;;;;0.80;0.50;;;;;;;9.18;71.25;99170.16;10395176;28;20057;-74
2023/01/08 10:07:56;;;;;;;1.60;0.55;;;;;;;9.02;70.87;99169.91;10396239;28;20043;-75
2023/01/08 10:13:00;;;;;;;1.63;0.60;;;;;;;8.74;69.83;99152.91;10399627;28;20500;-75
2023/01/08 10:18:07;;;;;;;1.38;0.70;;;;;;;8.86;68.99;99153.59;10398310;28;20063;-75
2023/01/08 10:23:12;;;;;;;0.75;0.38;;;;;;;9.51;67.28;99150.00;10401868;28;20051;-75
2023/01/08 10:28:20;;;;;;;2.05;0.50;;;;;;;9.78;65.17;99158.22;10389130;28;20048;-75
2023/01/08 10:33:26;;;;;;;2.00;0.57;;;;;;;10.33;62.53;99160.88;10403232;28;21069;-75
2023/01/08 10:38:32;;;;;;;1.60;0.43;;;;;;;10.55;59.96;99163.09;10377178;28;20045;-75
2023/01/08 10:43:40;;;;;;;4.40;0.68;;;;;;;11.07;58.14;99154.28;10377858;28;20171;-75
2023/01/08 10:48:51;;;;;;;1.50;0.60;;;;;;;11.41;57.30;99134.69;10377852;28;20050;-75
2023/01/08 10:53:56;;;;;;;2.17;0.60;;;;;;;11.24;57.68;99145.38;10381327;28;20417;-75
2023/01/08 10:58:59;;;;;;;2.15;0.40;;;;;;;11.40;57.65;99131.16;10395569;28;20085;-75
2023/01/08 11:04:06;;;;;;;1.45;0.50;;;;;;;11.71;54.97;99130.63;10407379;28;20146;-74
2023/01/08 11:09:21;;;;;;;4.05;0.68;;;;;;;12.43;52.97;99120.25;10407973;28;20056;-74
2023/01/08 11:14:26;;;;;;;7.15;1.08;;;;;;;12.99;51.13;99123.94;10414079;28;20436;-75
2023/01/08 11:19:32;;;;;;;3.53;1.25;;;;;;;12.17;52.25;99125.72;10413679;28;20047;-74
2023/01/08 11:24:37;;;;;;;3.30;0.85;;;;;;;11.84;54.25;99116.72;10407167;28;20053;-75
2023/01/08 11:29:44;;;;;;;3.13;0.70;;;;;;;12.42;52.70;99109.63;10410076;28;20041;-75
2023/01/08 11:34:56;;;;;;;4.43;1.83;;;;;;;11.96;53.38;99112.75;10408130;28;20052;-75
2023/01/08 11:39:59;;;;;;;5.53;2.22;;;;;;;11.15;55.60;99100.63;10411361;28;20115;-74
2023/01/08 11:45:15;;;;;;;5.00;2.13;;;;;;;12.24;52.85;99086.38;10409523;28;20541;-74
2023/01/08 11:50:24;;;;;;;4.10;1.20;;;;;;;12.23;51.99;99078.44;10399153;28;20052;-74
2023/01/08 11:55:44;;;;;;;2.85;1.25;;;;;;;12.58;52.65;99067.38;10392954;28;20059;-74
2023/01/08 12:00:57;;;;;;;3.05;1.17;;;;;;;13.30;49.85;99053.06;10408464;28;20057;-74
2023/01/08 12:06:13;;;;;;;5.32;1.15;;;;;;;12.80;50.82;99040.75;10405078;28;20059;-75
2023/01/08 12:11:22;;;;;;;3.45;1.27;;;;;;;13.46;49.22;99025.22;10399700;28;20044;-75
2023/01/08 12:16:50;;;;;;;3.60;1.00;;;;;;;14.59;47.30;99024.66;10390834;28;20060;-75
2023/01/08 12:22:20;;;;;;;2.80;1.00;;;;;;;12.81;49.29;99008.25;10396617;28;20063;-75
2023/01/08 12:27:34;;;;;;;7.28;1.20;;;;;;;12.88;50.05;98997.63;10372424;28;20114;-74
2023/01/08 12:33:02;;;;;;;4.68;1.27;;;;;;;12.46;51.50;98998.72;10392832;28;21184;-75
2023/01/08 12:38:13;;;;;;;5.05;1.38;;;;;;;12.60;50.92;98989.94;10394959;28;20049;-74
2023/01/08 12:43:21;;;;;;;4.97;1.20;;;;;;;12.02;52.94;98987.44;10390112;28;20041;-74
2023/01/08 12:48:27;;;;;;;4.28;0.90;;;;;;;12.20;52.50;98989.97;10392937;28;20520;-75
2023/01/08 12:53:41;;;;;;;6.93;1.77;;;;;;;12.40;52.59;98977.88;10385096;28;21293;-74
2023/01/08 12:59:09;;;;;;;4.35;0.80;;;;;;;13.08;51.57;98967.56;10392236;28;20647;-74
2023/01/08 13:04:13;;;;;;;5.00;1.73;;;;;;;13.40;50.29;98956.66;10387539;28;20049;-75
2023/01/08 13:09:23;;;;;;;11.95;3.90;;;;;;;13.18;51.20;98949.34;10392368;28;20672;-74
2023/01/08 13:14:26;;;;;;;7.97;3.47;;;;;;;12.23;53.44;98950.09;10373779;28;20115;-75
2023/01/08 13:19:36;;;;;;;5.40;2.08;;;;;;;11.36;56.08;98932.72;10376200;28;20057;-75
2023/01/08 13:24:41;;;;;;;7.70;1.40;;;;;;;11.27;57.33;98927.34;10385397;28;20057;-75
2023/01/08 13:29:45;;;;;;;1.38;0.60;;;;;;;10.99;57.80;98925.84;10383439;28;20136;-75
2023/01/08 13:34:48;;;;;;;2.47;0.70;;;;;;;10.68;58.69;98907.59;10394913;28;20064;-75
2023/01/08 13:39:52;;;;;;;4.18;1.15;;;;;;;10.73;59.17;98905.28;10398645;28;20057;-75
2023/01/08 13:45:00;;;;;;;3.80;1.00;;;;;;;10.40;60.98;98898.91;10395929;28;20053;-75
2023/01/08 13:50:14;;;;;;;2.53;1.00;;;;;;;10.20;62.51;98892.06;10391841;28;20123;-75
2023/01/08 13:55:21;;;;;;;3.53;0.90;;;;;;;10.22;62.97;98893.59;10400635;28;20049;-75
2023/01/08 14:00:29;;;;;;;2.58;1.10;;;;;;;10.26;62.34;98886.09;10393345;28;20104;-75
2023/01/08 14:05:33;;;;;;;4.55;2.58;;;;;;;10.11;62.74;98881.28;10394815;28;20128;-75
2023/01/08 14:10:37;;;;;;;2.22;1.27;;;;;;;9.76;63.09;98886.69;10411813;28;20124;-75
2023/01/08 14:15:40;;;;;;;3.45;1.30;;;;;;;10.26;61.79;98872.66;10406534;28;20076;-75
2023/01/08 14:20:47;;;;;;;3.47;1.70;;;;;;;10.55;61.56;98867.75;10409488;28;20547;-75
2023/01/08 14:25:53;;;;;;;1.90;0.90;;;;;;;10.78;60.71;98869.91;10400084;28;20049;-76
2023/01/08 14:30:57;;;;;;;0.90;0.47;;;;;;;11.49;58.60;98855.09;10387773;28;20056;-76
2023/01/08 14:36:01;;;;;;;2.13;0.95;;;;;;;11.23;58.68;98849.88;10402226;28;20114;-75
2023/01/08 14:41:09;;;;;;;1.65;0.47;;;;;;;10.74;60.31;98849.72;10422391;28;20068;-76
2023/01/08 14:46:19;;;;;;;0.93;0.80;;;;;;;10.56;60.16;98841.78;10430662;28;20045;-75
2023/01/08 14:51:25;;;;;;;2.40;0.80;;;;;;;10.12;61.78;98848.09;10404401;28;20045;-74
2023/01/08 14:56:32;;;;;;;0.28;0.25;;;;;;;10.16;61.85;98830.69;10400275;28;20520;-74
2023/01/08 15:01:35;;;;;;;1.63;0.85;;;;;;;9.88;62.21;98837.22;10401197;28;20479;-75
2023/01/08 15:06:38;;;;;;;1.85;1.35;;;;;;;9.69;62.50;98846.28;10397122;28;20053;-74
2023/01/08 15:11:53;;;;;;;0.82;0.80;;;;;;;9.32;63.45;98860.69;10399220;28;20123;-75
2023/01/08 15:16:58;;;;;;;1.10;0.95;;;;;;;9.68;62.50;98850.78;10402972;28;20052;-75
2023/01/08 15:22:02;;;;;;;1.95;1.00;;;;;;;9.54;62.74;98847.81;10396459;28;20088;-75
2023/01/08 15:27:09;;;;;;;2.15;0.60;;;;;;;9.60;63.21;98864.13;10390153;28;20056;-75
2023/01/08 15:32:21;;;;;;;1.45;0.52;;;;;;;9.33;63.91;98853.50;10393123;28;20089;-75
2023/01/08 15:37:24;;;;;;;1.17;0.43;;;;;;;8.97;64.12;98853.50;10395090;28;20047;-75
2023/01/08 15:47:51;;;;;;;0.85;0.35;;;;;;;8.96;64.72;98841.91;10400220;28;20250;-75
2023/01/08 15:52:56;;;;;;;0.60;0.52;;;;;;;8.86;65.02;98842.97;10399108;28;20052;-75
2023/01/08 15:58:00;;;;;;;0.45;0.40;;;;;;;8.83;65.11;98845.00;10393588;28;20098;-74
2023/01/08 16:03:06;;;;;;;0.90;0.50;;;;;;;8.70;65.51;98849.00;10410570;28;20045;-74
2023/01/08 16:08:10;;;;;;;1.30;0.70;;;;;;;8.32;66.11;98854.38;10405039;28;20179;-74
2023/01/08 16:13:14;;;;;;;2.72;0.73;;;;;;;8.42;66.18;98856.16;10405525;28;20075;-74
2023/01/08 16:18:17;;;;;;;0.85;0.47;;;;;;;7.98;67.38;98855.88;10406336;28;20073;-74
2023/01/08 16:23:20;;;;;;;0.43;0.40;;;;;;;8.18;67.08;98853.00;10410739;28;20052;-75
2023/01/08 16:28:24;;;;;;;0.47;0.40;;;;;;;8.18;67.00;98854.84;10406899;28;20053;-75
2023/01/08 16:33:27;;;;;;;0.85;0.50;;;;;;;8.24;67.06;98856.94;10400907;28;20123;-75
2023/01/08 16:38:31;;;;;;;1.00;0.50;;;;;;;8.00;68.00;98854.75;10410328;28;20517;-77
2023/01/08 16:43:44;;;;;;;2.45;0.63;;;;;;;7.98;68.54;98854.06;10407944;28;20555;-75
2023/01/08 16:48:47;;;;;;;1.67;0.60;;;;;;;7.97;68.50;98848.84;10409740;28;20091;-74
2023/01/08 16:53:50;;;;;;;1.55;0.80;;;;;;;8.02;68.35;98844.75;10405116;28;20136;-74
2023/01/08 16:58:54;;;;;;;2.88;1.00;;;;;;;7.84;68.81;98836.63;10403841;28;20521;-75
2023/01/08 17:03:57;;;;;;;0.85;0.80;;;;;;;7.84;69.22;98833.13;10397895;28;20057;-76
2023/01/08 17:09:02;;;;;;;1.95;1.08;;;;;;;7.94;69.26;98831.28;10394191;28;20200;-75
2023/01/08 17:14:06;;;;;;;1.08;0.95;;;;;;;7.92;69.48;98825.22;10393987;28;20053;-75
2023/01/08 17:19:09;;;;;;;2.53;1.02;;;;;;;7.95;69.71;98822.25;10389281;28;20611;-75
2023/01/08 17:24:12;;;;;;;2.67;1.52;;;;;;;7.91;70.58;98829.72;10388041;28;20506;-76
2023/01/08 17:29:16;;;;;;;1.23;1.08;;;;;;;7.91;71.06;98821.72;10392917;28;20144;-75
2023/01/08 17:34:21;;;;;;;1.77;1.52;;;;;;;7.93;70.87;98814.41;10398004;28;20076;-75
2023/01/08 17:39:23;;;;;;;4.18;2.20;;;;;;;8.04;70.99;98808.03;10402975;28;20085;-75
2023/01/08 17:44:29;;;;;;;5.07;2.30;;;;;;;7.85;71.53;98798.25;10407293;28;20053;-75
2023/01/08 17:49:32;;;;;;;2.38;1.90;;;;;;;7.70;72.08;98800.50;10383131;28;20550;-75
2023/01/08 17:54:35;;;;;;;1.70;1.27;;;;;;;7.78;71.54;98801.63;10415672;28;20182;-75
2023/01/08 17:59:40;;;;;;;2.85;1.20;;;;;;;7.68;71.50;98802.50;10413762;28;20541;-75
2023/01/08 18:04:44;;;;;;;1.20;1.10;;;;;;;7.49;71.58;98800.72;10406487;28;20048;-75
2023/01/08 18:09:48;;;;;;;2.13;1.27;;;;;;;7.62;70.96;98797.72;10413285;28;20570;-75
2023/01/08 18:14:52;;;;;;;1.52;1.08;;;;;;;7.80;70.20;98787.13;10404588;28;20130;-75
2023/01/08 18:19:55;;;;;;;2.17;1.50;;;;;;;7.91;69.71;98784.28;10411871;28;20498;-75
2023/01/08 18:24:58;;;;;;;2.00;0.90;;;;;;;8.00;68.97;98782.56;10408902;28;20057;-75
2023/01/08 18:30:02;;;;;;;1.75;0.90;;;;;;;7.83;68.96;98780.66;10410860;28;20425;-75
2023/01/08 18:35:05;;;;;;;2.28;1.13;;;;;;;8.03;68.32;98770.72;10408081;28;20076;-74
2023/01/08 18:40:09;;;;;;;2.67;1.52;;;;;;;7.98;68.23;98773.00;10409962;28;20061;-75
2023/01/08 18:45:14;;;;;;;4.38;1.20;;;;;;;7.88;68.31;98763.19;10401890;28;20564;-75
2023/01/08 18:50:17;;;;;;;1.42;1.10;;;;;;;7.95;68.12;98760.75;10409627;28;20124;-75
2023/01/08 18:55:20;;;;;;;0.93;0.82;;;;;;;7.94;67.96;98765.28;10408874;28;20175;-75
2023/01/08 19:00:25;;;;;;;1.15;0.80;;;;;;;7.84;68.04;98755.59;10409031;28;20046;-74
2023/01/08 19:05:28;;;;;;;2.80;0.77;;;;;;;7.75;68.00;98762.66;10406525;28;21227;-74
2023/01/08 19:10:31;;;;;;;1.10;0.80;;;;;;;7.59;68.84;98762.44;10426141;28;20171;-73
2023/01/08 19:15:35;;;;;;;1.20;0.77;;;;;;;7.68;68.40;98742.88;10407311;28;20427;-74
2023/01/08 19:20:42;;;;;;;1.98;0.90;;;;;;;7.57;68.71;98743.03;10402311;28;20057;-75
2023/01/08 19:25:44;;;;;;;1.25;0.90;;;;;;;7.57;68.50;98741.22;10410265;28;20541;-75
2023/01/08 19:30:55;;;;;;;1.58;0.80;;;;;;;7.38;69.06;98730.59;10406159;28;20128;-75
2023/01/08 19:36:00;;;;;;;1.65;1.13;;;;;;;7.46;68.52;98720.88;10404149;28;20049;-75
2023/01/08 19:41:03;;;;;;;2.65;1.30;;;;;;;7.41;68.34;98711.59;10402581;28;20057;-75
2023/01/08 19:46:09;;;;;;;1.70;1.00;;;;;;;7.34;68.38;98699.78;10407310;28;20052;-75
2023/01/08 19:51:12;;;;;;;2.40;0.88;;;;;;;7.40;68.15;98691.19;10408102;28;20049;-75
2023/01/08 19:56:16;;;;;;;4.53;1.23;;;;;;;7.34;68.01;98697.13;10394841;28;20036;-75
2023/01/08 20:01:23;;;;;;;2.40;1.25;;;;;;;7.26;68.20;98689.81;10396443;28;20064;-74
2023/01/08 20:06:28;;;;;;;2.85;1.00;;;;;;;7.25;68.00;98680.97;10396223;28;20057;-74
2023/01/08 20:11:31;;;;;;;1.63;0.90;;;;;;;7.22;68.02;98669.75;10400760;28;20049;-75
2023/01/08 20:16:35;;;;;;;2.67;1.23;;;;;;;7.11;68.37;98676.09;10396886;28;20098;-75
2023/01/08 20:21:38;;;;;;;3.47;1.00;;;;;;;7.07;68.67;98664.00;10389300;28;20506;-75
2023/01/08 20:26:42;;;;;;;2.03;1.00;;;;;;;6.90;68.92;98659.41;10395705;28;20045;-75
2023/01/08 20:31:55;;;;;;;2.33;0.80;;;;;;;7.08;68.03;98644.34;10395084;28;20154;-75
2023/01/08 20:36:58;;;;;;;;;;;;;;;7.04;67.96;98629.59;10398249;28;20411;-75
2023/01/08 20:42:00;;;;;;;3.67;0.90;;;;;;;7.08;67.54;98641.69;10399058;28;20015;-75
2023/01/08 20:47:07;;;;;;;1.65;1.02;;;;;;;7.18;67.15;98645.16;10392382;28;23009;-74
2023/01/08 20:52:10;;;;;;;1.55;0.80;;;;;;;7.27;66.62;98649.63;10402347;28;20045;-75
2023/01/08 20:57:13;;;;;;;1.25;0.70;;;;;;;7.42;66.02;98638.47;10407431;28;20582;-74
2023/01/08 21:02:18;;;;;;;2.03;0.90;;;;;;;7.45;65.73;98638.19;10410629;28;20064;-74
2023/01/08 21:07:21;;;;;;;0.88;0.73;;;;;;;7.35;65.74;98629.34;10408150;28;20068;-75
2023/01/08 21:12:24;;;;;;;2.25;0.70;;;;;;;7.22;66.35;98619.84;10411080;28;20049;-76
2023/01/08 21:17:28;;;;;;;3.40;0.80;;;;;;;7.35;65.37;98606.19;10402785;28;20148;-75
2023/01/08 21:22:31;;;;;;;2.55;1.52;;;;;;;7.35;65.26;98605.31;10403112;28;20049;-75
2023/01/08 21:27:34;;;;;;;4.65;1.38;;;;;;;7.20;65.42;98588.94;10408891;28;20048;-75
2023/01/08 21:32:38;;;;;;;1.65;0.82;;;;;;;7.15;65.60;98594.72;10415479;28;20049;-75
2023/01/08 21:37:40;;;;;;;2.45;0.90;;;;;;;7.08;65.62;98585.63;10411610;28;20587;-75
2023/01/08 21:48:05;;;;;;;1.20;0.88;;;;;;;7.06;65.75;98561.72;10410529;28;20041;-75
2023/01/08 21:58:31;;;;;;;1.10;0.90;;;;;;;7.31;65.10;98548.69;10410970;28;20048;-75
2023/01/08 22:03:35;;;;;;;3.55;0.98;;;;;;;7.37;65.19;98523.22;10410520;28;21638;-75
2023/01/08 22:08:38;;;;;;;1.42;1.00;;;;;;;7.41;65.43;98516.59;10412627;28;20051;-75
2023/01/08 22:13:41;;;;;;;2.70;1.15;;;;;;;7.46;66.04;98498.25;10411844;28;20045;-76
2023/01/08 22:18:45;;;;;;;2.30;1.70;;;;;;;7.48;66.54;98493.63;10401176;28;20038;-76
2023/01/08 22:23:48;;;;;;;2.78;1.60;;;;;;;7.47;66.91;98479.44;10399158;28;20053;-75
2023/01/08 22:28:50;;;;;;;2.50;1.70;;;;;;;7.52;67.46;98470.97;10465673;22;20047;-75
2023/01/08 22:33:55;;;;;;;1.55;1.45;;;;;;;7.48;67.89;98477.59;10488012;28;20157;-76
2023/01/08 22:38:58;;;;;;;1.48;1.02;;;;;;;7.50;68.29;98465.75;10481228;28;20048;-77
2023/01/08 22:44:01;;;;;;;2.38;1.40;;;;;;;7.52;68.54;98454.09;10507916;28;20075;-77
2023/01/08 22:49:05;;;;;;;2.25;1.58;;;;;;;7.67;68.47;98444.56;10510776;28;20094;-77
2023/01/08 22:54:09;;;;;;;1.70;1.30;;;;;;;7.68;68.44;98441.75;10509483;28;20044;-77
2023/01/08 22:59:12;;;;;;;3.47;1.55;;;;;;;7.78;68.42;98433.63;10508492;28;20059;-77
2023/01/08 23:04:16;;;;;;;2.17;1.42;;;;;;;7.77;68.32;98425.78;10508349;28;20036;-77
2023/01/08 23:09:19;;;;;;;1.40;1.27;;;;;;;7.72;68.52;98424.38;10509588;28;20036;-76
2023/01/08 23:14:22;;;;;;;2.55;1.50;;;;;;;7.66;68.85;98416.16;10508438;28;20048;-77
2023/01/08 23:19:26;;;;;;;1.92;1.40;;;;;;;7.71;68.47;98412.03;10508114;28;20489;-77
2023/01/08 23:24:30;;;;;;;4.00;1.48;;;;;;;7.83;68.42;98403.78;10497754;28;20123;-77
2023/01/08 23:29:33;;;;;;;3.65;1.38;;;;;;;7.87;68.39;98402.44;10494860;28;20123;-77
2023/01/08 23:34:37;;;;;;;3.42;1.80;;;;;;;7.95;67.98;98405.19;10496044;28;20416;-77
2023/01/08 23:39:40;;;;;;;2.25;1.52;;;;;;;8.04;67.79;98390.91;10491817;28;20060;-77
2023/01/08 23:44:43;;;;;;;2.45;1.70;;;;;;;8.11;67.76;98375.88;10496120;28;20237;-76
2023/01/08 23:49:47;;;;;;;3.13;1.70;;;;;;;8.12;67.43;98372.25;10498402;28;20080;-76
2023/01/08 23:54:50;;;;;;;2.17;1.90;;;;;;;8.09;67.65;98363.66;10489578;28;20072;-77
2023/01/08 23:59:54;;;;;;;2.33;2.15;;;;;;;8.03;67.79;98362.47;10494383;28;20132;-77
